Time;durP1;ratioP1;P1;durP2;ratioP2;P2;SDS_P1;SDS_P2;PMS_P1;PMS_P2;Temp;Humidity;BMP_temperature;BMP_pressure;BME280_temperature;BME280_humidity;BME280_pressure;Samples;Min_cycle;Max_cycle;Signal;HPM_P1;HPM_P2
2021/01/30 00:02:02;;;;;;;16.30;14.23;;;;;;;;;;4966097;28;20172;-48
2021/01/30 00:04:27;;;;;;;19.10;14.23;;;;;;;;;;4966177;28;20698;-48
2021/01/30 00:06:53;;;;;;;16.27;14.48;;;;;;;;;;4966034;28;20197;-47
2021/01/30 00:09:19;;;;;;;14.73;13.17;;;;;;;;;;4961908;28;20366;-46
2021/01/30 00:11:47;;;;;;;18.17;14.10;;;;;;;;;;4966076;28;20186;-48
2021/01/30 00:14:13;;;;;;;11.10;8.87;;;;;;;;;;4958138;28;21159;-49
2021/01/30 00:16:38;;;;;;;9.40;5.70;;;;;;;;;;4970286;28;20617;-49
2021/01/30 00:19:03;;;;;;;5.75;4.47;;;;;;;;;;4964250;28;20540;-47
2021/01/30 00:21:28;;;;;;;5.70;3.88;;;;;;;;;;4966622;28;20212;-48
2021/01/30 00:23:53;;;;;;;5.05;3.47;;;;;;;;;;4957043;28;20182;-48
2021/01/30 00:26:18;;;;;;;7.32;3.75;;;;;;;;;;4969033;28;20632;-49
2021/01/30 00:28:43;;;;;;;5.20;3.55;;;;;;;;;;4953394;28;20300;-48
2021/01/30 00:31:09;;;;;;;8.53;3.30;;;;;;;;;;4969205;28;20178;-49
2021/01/30 00:33:34;;;;;;;6.53;2.95;;;;;;;;;;4961042;28;20550;-48
2021/01/30 00:35:59;;;;;;;3.50;3.17;;;;;;;;;;4949391;28;20182;-48
2021/01/30 00:38:24;;;;;;;5.77;3.33;;;;;;;;;;4961579;28;24421;-48
2021/01/30 00:40:49;;;;;;;4.10;3.28;;;;;;;;;;4964880;28;24510;-48
2021/01/30 00:43:14;;;;;;;3.43;3.13;;;;;;;;;;4961802;28;24415;-48
2021/01/30 00:45:39;;;;;;;3.25;2.95;;;;;;;;;;4952378;28;20249;-48
2021/01/30 00:48:05;;;;;;;6.10;3.10;;;;;;;;;;4965722;28;25066;-49
2021/01/30 00:50:30;;;;;;;2.87;2.60;;;;;;;;;;4962304;28;20171;-49
2021/01/30 00:52:55;;;;;;;7.10;2.53;;;;;;;;;;4971403;28;20587;-48
2021/01/30 00:55:21;;;;;;;4.33;2.40;;;;;;;;;;4960230;28;20254;-49
2021/01/30 00:57:46;;;;;;;3.07;2.60;;;;;;;;;;4971135;28;20879;-50
2021/01/30 01:00:23;;;;;;;3.37;3.07;;;;;;;;;;4965914;28;24471;-49
2021/01/30 01:02:48;;;;;;;3.23;2.63;;;;;;;;;;4965393;28;20679;-49
2021/01/30 01:05:15;;;;;;;3.30;2.57;;;;;;;;;;4965315;28;24501;-49
2021/01/30 01:07:40;;;;;;;;;;;;;;;;;;4963733;28;20113;-49
2021/01/30 01:10:05;;;;;;;2.60;2.40;;;;;;;;;;4970824;28;20816;-49
2021/01/30 01:12:30;;;;;;;3.67;2.43;;;;;;;;;;4971037;28;20230;-48
2021/01/30 01:14:55;;;;;;;3.40;2.42;;;;;;;;;;4958402;28;20184;-49
2021/01/30 01:17:21;;;;;;;;;;;;;;;;;;4970604;28;20039;-49
2021/01/30 01:19:46;;;;;;;3.30;2.93;;;;;;;;;;4959123;28;20184;-49
2021/01/30 01:22:11;;;;;;;4.43;2.97;;;;;;;;;;4958637;28;24773;-49
2021/01/30 01:24:36;;;;;;;3.70;2.60;;;;;;;;;;4962544;28;24572;-50
2021/01/30 01:27:01;;;;;;;2.65;2.45;;;;;;;;;;4968492;28;20408;-50
2021/01/30 01:29:26;;;;;;;2.93;2.57;;;;;;;;;;4970708;28;20258;-50
2021/01/30 01:31:53;;;;;;;3.00;2.63;;;;;;;;;;4971643;28;20246;-50
2021/01/30 01:34:20;;;;;;;5.40;2.80;;;;;;;;;;4970196;28;20702;-51
2021/01/30 01:36:51;;;;;;;3.03;2.73;;;;;;;;;;4971751;28;21155;-50
2021/01/30 01:39:16;;;;;;;3.20;2.57;;;;;;;;;;4969011;28;21209;-52
2021/01/30 01:41:41;;;;;;;3.65;2.78;;;;;;;;;;4970700;28;25078;-51
2021/01/30 01:44:06;;;;;;;;;;;;;;;;;;4967508;28;20114;-52
2021/01/30 01:46:35;;;;;;;3.05;2.50;;;;;;;;;;4957971;28;20551;-50
2021/01/30 01:49:06;;;;;;;2.67;2.47;;;;;;;;;;4965627;28;20187;-50
2021/01/30 01:51:42;;;;;;;3.20;2.80;;;;;;;;;;4969886;28;20586;-51
2021/01/30 01:54:12;;;;;;;3.60;2.65;;;;;;;;;;4958220;28;24764;-51
2021/01/30 01:56:37;;;;;;;2.50;2.20;;;;;;;;;;4968438;28;20187;-52
2021/01/30 01:59:03;;;;;;;;;;;;;;;;;;4955210;28;20447;-50
2021/01/30 02:01:30;;;;;;;2.45;2.25;;;;;;;;;;4968756;28;20198;-51
2021/01/30 02:03:56;;;;;;;4.20;2.78;;;;;;;;;;4956336;28;24977;-50
2021/01/30 02:06:21;;;;;;;3.47;2.63;;;;;;;;;;4970290;28;20540;-51
2021/01/30 02:08:47;;;;;;;3.00;2.43;;;;;;;;;;4969221;28;20649;-51
2021/01/30 02:11:13;;;;;;;2.97;2.67;;;;;;;;;;4965342;28;20183;-53
2021/01/30 02:13:46;;;;;;;3.40;2.70;;;;;;;;;;4965971;28;20599;-50
2021/01/30 02:16:30;;;;;;;2.80;2.50;;;;;;;;;;4968134;28;20178;-50
2021/01/30 02:19:22;;;;;;;3.70;2.40;;;;;;;;;;4964441;28;20656;-52
2021/01/30 02:22:05;;;;;;;3.63;2.87;;;;;;;;;;4970091;28;20669;-49
2021/01/30 02:24:52;;;;;;;3.73;2.87;;;;;;;;;;4961889;28;20696;-47
2021/01/30 02:27:24;;;;;;;5.03;3.00;;;;;;;;;;4965703;28;20702;-53
2021/01/30 02:29:49;;;;;;;;;;;;;;;;;;4970769;28;20446;-51
2021/01/30 02:32:14;;;;;;;;;;;;;;;;;;4969024;28;19926;-49
2021/01/30 02:34:39;;;;;;;;;;;;;;;;;;4954725;28;20419;-50
2021/01/30 02:37:05;;;;;;;;;;;;;;;;;;4971690;28;19913;-50
2021/01/30 02:39:30;;;;;;;;;;;;;;;;;;4961896;28;19910;-51
2021/01/30 02:41:59;;;;;;;4.10;3.80;;;;;;;;;;4969168;28;20727;-51
2021/01/30 02:44:26;;;;;;;3.90;3.20;;;;;;;;;;4954753;28;20172;-50
2021/01/30 02:46:53;;;;;;;3.20;3.00;;;;;;;;;;4963458;28;20602;-51
2021/01/30 02:49:39;;;;;;;5.40;3.50;;;;;;;;;;4964172;28;20760;-52
2021/01/30 02:52:23;;;;;;;3.07;2.87;;;;;;;;;;4951010;28;20613;-52
2021/01/30 02:54:51;;;;;;;3.37;3.07;;;;;;;;;;4963565;28;20832;-51
2021/01/30 02:57:17;;;;;;;2.80;2.60;;;;;;;;;;4950842;28;20616;-50
2021/01/30 02:59:49;;;;;;;2.97;2.67;;;;;;;;;;4959204;28;20998;-50
2021/01/30 03:02:14;;;;;;;3.20;2.90;;;;;;;;;;4951975;28;20215;-50
2021/01/30 03:04:40;;;;;;;4.63;2.90;;;;;;;;;;4957634;28;21113;-50
2021/01/30 03:07:17;;;;;;;2.77;2.57;;;;;;;;;;4962669;28;20322;-50
2021/01/30 03:09:45;;;;;;;4.80;3.60;;;;;;;;;;4969829;28;20612;-49
2021/01/30 03:12:15;;;;;;;4.57;4.17;;;;;;;;;;4955354;28;20598;-52
2021/01/30 03:14:44;;;;;;;3.60;3.30;;;;;;;;;;4959614;28;20612;-51
2021/01/30 03:17:10;;;;;;;3.33;2.97;;;;;;;;;;4965643;28;20608;-49
2021/01/30 03:19:36;;;;;;;4.40;3.77;;;;;;;;;;4962720;28;20606;-51
2021/01/30 03:22:06;;;;;;;4.87;3.83;;;;;;;;;;4958424;28;21015;-51
2021/01/30 03:24:31;;;;;;;4.43;3.33;;;;;;;;;;4951989;28;20181;-50
2021/01/30 03:26:57;;;;;;;4.37;3.97;;;;;;;;;;4967128;28;20641;-52
2021/01/30 03:29:22;;;;;;;3.80;3.50;;;;;;;;;;4966532;28;20225;-51
2021/01/30 03:31:47;;;;;;;5.60;3.97;;;;;;;;;;4965959;28;20190;-51
2021/01/30 03:34:13;;;;;;;7.47;6.20;;;;;;;;;;4968966;28;20178;-50
2021/01/30 03:36:38;;;;;;;10.00;8.80;;;;;;;;;;4965918;28;20296;-49
2021/01/30 03:39:10;;;;;;;9.68;8.07;;;;;;;;;;4969058;28;20723;-50
2021/01/30 03:41:35;;;;;;;10.63;9.00;;;;;;;;;;4950265;28;518047;-50
2021/01/30 03:44:00;;;;;;;8.43;7.57;;;;;;;;;;4967848;28;20608;-50
2021/01/30 03:46:26;;;;;;;7.97;7.18;;;;;;;;;;4965704;28;20181;-50
2021/01/30 03:48:51;;;;;;;9.43;8.27;;;;;;;;;;4954307;28;20198;-50
2021/01/30 03:51:16;;;;;;;7.37;6.67;;;;;;;;;;4953777;28;20514;-48
2021/01/30 03:53:41;;;;;;;12.15;10.02;;;;;;;;;;4955574;28;20602;-50
2021/01/30 03:56:06;;;;;;;10.80;8.50;;;;;;;;;;4955236;28;20845;-50
2021/01/30 03:58:32;;;;;;;10.97;8.30;;;;;;;;;;4966160;28;20205;-54
2021/01/30 04:00:57;;;;;;;10.20;9.00;;;;;;;;;;4958791;28;20182;-52
2021/01/30 04:03:22;;;;;;;10.33;9.17;;;;;;;;;;4960610;28;20576;-48
2021/01/30 04:05:47;;;;;;;8.65;7.45;;;;;;;;;;4966979;28;20181;-48
2021/01/30 04:08:12;;;;;;;8.83;7.93;;;;;;;;;;4962507;28;20208;-49
2021/01/30 04:10:37;;;;;;;11.18;10.07;;;;;;;;;;4968653;28;20219;-50
2021/01/30 04:13:04;;;;;;;12.07;9.27;;;;;;;;;;4968105;28;20189;-50
2021/01/30 04:15:32;;;;;;;11.77;9.77;;;;;;;;;;4950180;28;20177;-49
2021/01/30 04:17:57;;;;;;;14.53;10.80;;;;;;;;;;4962850;28;20602;-49
2021/01/30 04:20:22;;;;;;;13.85;10.80;;;;;;;;;;4958881;28;20743;-48
2021/01/30 04:22:47;;;;;;;12.33;10.73;;;;;;;;;;4962115;28;20194;-49
2021/01/30 04:25:14;;;;;;;14.15;12.38;;;;;;;;;;4967357;28;20184;-49
2021/01/30 04:27:40;;;;;;;16.30;10.77;;;;;;;;;;4957505;28;20223;-49
2021/01/30 04:30:05;;;;;;;12.70;10.80;;;;;;;;;;4967581;28;20950;-49
2021/01/30 04:32:30;;;;;;;13.27;11.00;;;;;;;;;;4971189;28;20170;-48
2021/01/30 04:34:55;;;;;;;12.03;10.77;;;;;;;;;;4960866;28;20194;-49
2021/01/30 04:37:21;;;;;;;13.48;12.00;;;;;;;;;;4957493;28;20181;-49
2021/01/30 04:39:46;;;;;;;14.63;12.57;;;;;;;;;;4972586;28;20195;-51
2021/01/30 04:42:26;;;;;;;15.73;12.23;;;;;;;;;;4973167;28;20197;-50
2021/01/30 04:45:06;;;;;;;17.03;12.83;;;;;;;;;;4964849;28;20650;-49
2021/01/30 04:47:35;;;;;;;16.23;13.23;;;;;;;;;;4960382;28;20643;-49
2021/01/30 04:50:03;;;;;;;20.97;15.37;;;;;;;;;;4969716;28;20948;-49
2021/01/30 04:52:46;;;;;;;16.70;14.10;;;;;;;;;;4972820;28;21207;-50
2021/01/30 04:55:47;;;;;;;16.07;14.07;;;;;;;;;;4964172;28;20601;-50
2021/01/30 04:58:18;;;;;;;17.63;14.80;;;;;;;;;;4924849;29;21173;-49
2021/01/30 05:00:53;;;;;;;21.20;17.57;;;;;;;;;;4964927;28;20614;-51
2021/01/30 05:03:27;;;;;;;22.73;18.90;;;;;;;;;;4969641;28;20661;-50
2021/01/30 05:05:55;;;;;;;23.27;19.17;;;;;;;;;;4971755;28;20776;-49
2021/01/30 05:08:23;;;;;;;25.00;18.63;;;;;;;;;;4967853;28;20637;-49
2021/01/30 05:10:57;;;;;;;25.17;19.17;;;;;;;;;;4961419;28;20650;-50
2021/01/30 05:13:38;;;;;;;26.97;20.60;;;;;;;;;;4963725;28;20727;-49
2021/01/30 05:16:07;;;;;;;28.40;21.07;;;;;;;;;;4966035;28;20602;-50
2021/01/30 05:18:34;;;;;;;29.90;22.63;;;;;;;;;;4957491;28;20594;-51
2021/01/30 05:21:03;;;;;;;38.10;26.40;;;;;;;;;;4966185;28;20941;-51
2021/01/30 05:23:28;;;;;;;36.00;25.23;;;;;;;;;;4964141;28;20602;-51
2021/01/30 05:25:59;;;;;;;38.10;26.60;;;;;;;;;;4963772;28;20621;-50
2021/01/30 05:28:47;;;;;;;34.53;24.37;;;;;;;;;;4972016;28;20220;-50
2021/01/30 05:31:18;;;;;;;40.30;28.37;;;;;;;;;;4970291;28;20605;-49
2021/01/30 05:33:46;;;;;;;38.93;25.53;;;;;;;;;;4970920;28;20586;-49
2021/01/30 05:36:16;;;;;;;40.47;27.60;;;;;;;;;;4959745;28;21045;-48
2021/01/30 05:38:56;;;;;;;41.87;27.10;;;;;;;;;;4969616;28;20634;-50
2021/01/30 05:41:29;;;;;;;41.87;26.10;;;;;;;;;;4971678;28;20764;-49
2021/01/30 05:44:02;;;;;;;37.07;24.60;;;;;;;;;;4969103;28;20603;-48
2021/01/30 05:46:29;;;;;;;37.23;25.87;;;;;;;;;;4962508;28;20594;-48
2021/01/30 05:48:55;;;;;;;41.87;26.67;;;;;;;;;;4961015;28;20855;-48
2021/01/30 05:51:38;;;;;;;41.13;25.20;;;;;;;;;;4963811;28;20590;-48
2021/01/30 05:54:04;;;;;;;42.90;26.70;;;;;;;;;;4969657;28;20231;-48
2021/01/30 05:56:30;;;;;;;38.83;25.97;;;;;;;;;;4968424;28;20589;-49
2021/01/30 05:58:55;;;;;;;38.40;26.63;;;;;;;;;;4972097;28;20609;-48
2021/01/30 06:01:23;;;;;;;35.65;25.33;;;;;;;;;;4970116;28;20605;-48
2021/01/30 06:03:57;;;;;;;33.63;22.60;;;;;;;;;;4971106;28;20551;-50
2021/01/30 06:06:23;;;;;;;31.87;21.33;;;;;;;;;;4961103;28;20673;-49
2021/01/30 06:09:14;;;;;;;28.63;19.87;;;;;;;;;;4961584;28;20656;-48
2021/01/30 06:11:42;;;;;;;23.47;17.97;;;;;;;;;;4955619;28;20659;-49
2021/01/30 06:14:08;;;;;;;27.70;19.27;;;;;;;;;;4968490;28;20669;-53
2021/01/30 06:16:35;;;;;;;24.00;16.70;;;;;;;;;;4960035;28;20605;-50
2021/01/30 06:19:29;;;;;;;22.80;16.47;;;;;;;;;;4953378;28;20622;-49
2021/01/30 06:22:09;;;;;;;28.23;17.73;;;;;;;;;;4979105;28;21127;-47
2021/01/30 06:24:35;;;;;;;29.50;18.17;;;;;;;;;;4968950;28;20601;-48
2021/01/30 06:27:02;;;;;;;27.10;19.90;;;;;;;;;;4965462;28;20653;-48
2021/01/30 06:29:35;;;;;;;25.73;18.47;;;;;;;;;;4965600;28;20241;-47
2021/01/30 06:32:13;;;;;;;24.93;17.40;;;;;;;;;;4971934;28;20602;-48
2021/01/30 06:34:38;;;;;;;23.80;17.03;;;;;;;;;;4964252;28;20688;-47
2021/01/30 06:37:08;;;;;;;23.73;16.27;;;;;;;;;;4964705;28;21227;-48
2021/01/30 06:39:35;;;;;;;21.63;15.80;;;;;;;;;;4970776;28;20203;-47
2021/01/30 06:42:03;;;;;;;20.97;14.80;;;;;;;;;;4958183;28;20598;-48
2021/01/30 06:44:29;;;;;;;20.80;15.63;;;;;;;;;;4971382;28;20600;-49
2021/01/30 06:47:16;;;;;;;18.67;15.20;;;;;;;;;;4959704;28;21044;-48
2021/01/30 06:49:46;;;;;;;22.70;15.90;;;;;;;;;;4960804;28;20602;-48
2021/01/30 06:52:13;;;;;;;22.17;13.87;;;;;;;;;;4965740;28;20598;-48
2021/01/30 06:54:38;;;;;;;22.40;16.00;;;;;;;;;;4967780;28;20593;-48
2021/01/30 06:57:04;;;;;;;18.30;14.67;;;;;;;;;;4968759;28;20673;-48
2021/01/30 06:59:30;;;;;;;23.07;14.70;;;;;;;;;;4967680;28;20179;-48
2021/01/30 07:01:56;;;;;;;23.70;15.03;;;;;;;;;;4968916;28;20194;-48
2021/01/30 07:04:27;;;;;;;21.37;15.07;;;;;;;;;;4970239;28;20661;-49
2021/01/30 07:07:09;;;;;;;19.47;14.20;;;;;;;;;;4968674;28;20191;-48
2021/01/30 07:09:39;;;;;;;20.27;15.13;;;;;;;;;;4965531;28;20638;-48
2021/01/30 07:12:10;;;;;;;18.40;14.60;;;;;;;;;;4968951;28;20606;-50
2021/01/30 07:14:42;;;;;;;21.47;15.03;;;;;;;;;;4971130;28;20583;-50
2021/01/30 07:17:07;;;;;;;21.00;14.93;;;;;;;;;;4969055;28;20612;-49
2021/01/30 07:19:52;;;;;;;17.25;14.13;;;;;;;;;;4969665;28;20590;-50
2021/01/30 07:22:20;;;;;;;17.43;12.80;;;;;;;;;;4971434;28;20190;-51
2021/01/30 07:24:51;;;;;;;19.20;13.70;;;;;;;;;;4970939;28;20602;-47
2021/01/30 07:27:22;;;;;;;17.90;13.77;;;;;;;;;;4967412;28;20660;-48
2021/01/30 07:29:56;;;;;;;18.00;13.20;;;;;;;;;;4970101;28;21013;-50
2021/01/30 07:32:24;;;;;;;16.23;12.20;;;;;;;;;;4970058;28;20593;-47
2021/01/30 07:35:10;;;;;;;16.17;13.10;;;;;;;;;;4967442;28;20598;-49
2021/01/30 07:37:35;;;;;;;19.60;13.57;;;;;;;;;;4961857;28;20590;-48
2021/01/30 07:40:04;;;;;;;15.25;12.57;;;;;;;;;;4963949;28;20739;-50
2021/01/30 07:42:37;;;;;;;16.00;12.40;;;;;;;;;;4957011;28;20250;-49
2021/01/30 07:45:03;;;;;;;13.20;11.50;;;;;;;;;;4965629;28;20624;-48
2021/01/30 07:47:37;;;;;;;15.53;10.50;;;;;;;;;;4967698;28;20634;-50
2021/01/30 07:50:06;;;;;;;17.10;11.53;;;;;;;;;;4965690;28;20170;-49
2021/01/30 07:52:34;;;;;;;14.17;10.30;;;;;;;;;;4961870;28;20590;-49
2021/01/30 07:55:01;;;;;;;15.87;12.33;;;;;;;;;;4958158;28;20594;-48
2021/01/30 07:57:51;;;;;;;16.83;14.57;;;;;;;;;;4961296;28;24500;-48
2021/01/30 08:00:21;;;;;;;17.20;13.97;;;;;;;;;;4960842;28;20182;-49
2021/01/30 08:03:04;;;;;;;12.60;10.83;;;;;;;;;;4968787;28;20615;-48
2021/01/30 08:05:43;;;;;;;14.80;11.60;;;;;;;;;;4963163;28;21039;-49
2021/01/30 08:08:15;;;;;;;16.03;11.23;;;;;;;;;;4977203;28;21097;-49
2021/01/30 08:10:46;;;;;;;15.27;11.60;;;;;;;;;;4978720;28;20609;-48
2021/01/30 08:13:29;;;;;;;14.73;11.40;;;;;;;;;;4972093;28;20608;-47
2021/01/30 08:16:05;;;;;;;13.60;11.07;;;;;;;;;;4961791;28;20599;-47
2021/01/30 08:18:30;;;;;;;14.83;11.20;;;;;;;;;;4958150;28;20648;-49
2021/01/30 08:21:04;;;;;;;16.48;12.25;;;;;;;;;;4970576;28;20585;-48
2021/01/30 08:23:32;;;;;;;15.67;11.87;;;;;;;;;;4969339;28;20187;-49
2021/01/30 08:26:00;;;;;;;17.17;11.33;;;;;;;;;;4973595;28;20610;-50
2021/01/30 08:28:45;;;;;;;13.57;10.50;;;;;;;;;;4968083;28;21240;-49
2021/01/30 08:31:29;;;;;;;16.80;12.47;;;;;;;;;;4956775;28;20610;-48
2021/01/30 08:34:01;;;;;;;14.73;11.80;;;;;;;;;;4968936;28;20589;-49
2021/01/30 08:36:37;;;;;;;18.53;13.40;;;;;;;;;;4971291;28;20597;-48
2021/01/30 08:39:06;;;;;;;13.33;11.23;;;;;;;;;;4965778;28;20629;-47
2021/01/30 08:41:41;;;;;;;16.70;12.87;;;;;;;;;;4974134;28;20748;-48
2021/01/30 08:44:06;;;;;;;15.83;12.60;;;;;;;;;;4966994;28;21357;-48
2021/01/30 08:46:33;;;;;;;13.53;11.43;;;;;;;;;;4969763;28;20614;-49
2021/01/30 08:49:10;;;;;;;18.43;13.77;;;;;;;;;;4948514;28;20235;-48
2021/01/30 08:51:36;;;;;;;14.93;13.07;;;;;;;;;;4950841;29;20570;-48
2021/01/30 08:54:20;;;;;;;16.43;12.03;;;;;;;;;;4961661;28;20681;-48
2021/01/30 08:56:47;;;;;;;15.43;12.97;;;;;;;;;;4968103;28;20179;-48
2021/01/30 08:59:30;;;;;;;13.73;11.73;;;;;;;;;;4950638;28;21314;-55
2021/01/30 09:01:55;;;;;;;19.17;13.07;;;;;;;;;;4965591;28;20736;-48
2021/01/30 09:04:53;;;;;;;15.15;11.63;;;;;;;;;;4950720;28;20722;-48
2021/01/30 09:07:37;;;;;;;14.53;12.60;;;;;;;;;;4949027;28;20265;-48
2021/01/30 09:10:17;;;;;;;17.20;13.17;;;;;;;;;;4969763;28;20570;-49
2021/01/30 09:12:51;;;;;;;15.50;12.63;;;;;;;;;;4971755;28;20594;-54
2021/01/30 09:15:35;;;;;;;18.27;13.60;;;;;;;;;;4973310;28;20627;-49
2021/01/30 09:18:01;;;;;;;15.37;13.20;;;;;;;;;;4964526;28;20605;-49
2021/01/30 09:20:29;;;;;;;17.67;13.03;;;;;;;;;;4965459;28;20635;-48
2021/01/30 09:23:03;;;;;;;15.03;12.63;;;;;;;;;;4953370;28;20587;-48
2021/01/30 09:25:36;;;;;;;16.03;13.67;;;;;;;;;;4961514;28;20619;-48
2021/01/30 09:28:22;;;;;;;15.67;12.53;;;;;;;;;;4970874;28;20736;-49
2021/01/30 09:30:55;;;;;;;14.23;12.33;;;;;;;;;;4972670;28;20596;-48
2021/01/30 09:33:23;;;;;;;15.17;12.10;;;;;;;;;;4972424;28;20592;-48
2021/01/30 09:35:49;;;;;;;14.63;11.93;;;;;;;;;;4972829;28;20574;-54
2021/01/30 09:38:19;;;;;;;15.97;12.30;;;;;;;;;;4970875;28;21131;-49
2021/01/30 09:40:44;;;;;;;15.73;12.70;;;;;;;;;;4972603;28;20219;-49
2021/01/30 09:43:09;;;;;;;17.13;13.07;;;;;;;;;;4972869;28;20942;-50
2021/01/30 09:45:35;;;;;;;12.97;10.97;;;;;;;;;;4971962;28;20252;-48
2021/01/30 09:48:04;;;;;;;15.23;13.63;;;;;;;;;;4955569;28;20215;-48
2021/01/30 09:50:38;;;;;;;17.50;14.60;;;;;;;;;;4969663;28;20180;-47
2021/01/30 09:53:04;;;;;;;20.17;13.93;;;;;;;;;;4964292;28;20614;-49
2021/01/30 09:55:30;;;;;;;14.77;13.17;;;;;;;;;;4957514;28;20605;-47
2021/01/30 09:58:01;;;;;;;14.33;11.67;;;;;;;;;;4963067;28;20701;-54
2021/01/30 10:00:30;;;;;;;14.43;12.83;;;;;;;;;;4959701;28;20176;-47
2021/01/30 10:03:09;;;;;;;16.10;13.13;;;;;;;;;;4967729;28;20619;-48
2021/01/30 10:05:34;;;;;;;15.97;13.20;;;;;;;;;;4971774;28;21036;-48
2021/01/30 10:08:32;;;;;;;14.73;12.60;;;;;;;;;;4969843;28;20737;-47
2021/01/30 10:11:12;;;;;;;14.47;12.53;;;;;;;;;;4948933;28;20269;-47
2021/01/30 10:13:38;;;;;;;13.47;11.50;;;;;;;;;;4961995;28;20606;-48
2021/01/30 10:16:08;;;;;;;14.00;12.50;;;;;;;;;;4965836;28;21139;-47
2021/01/30 10:18:34;;;;;;;15.53;13.93;;;;;;;;;;4966444;28;21004;-48
2021/01/30 10:21:03;;;;;;;;;;;;;;;;;;4966116;28;20458;-48
2021/01/30 10:23:36;;;;;;;16.13;14.60;;;;;;;;;;4962023;28;21190;-48
2021/01/30 10:26:10;;;;;;;15.67;14.00;;;;;;;;;;4971883;28;20178;-47
2021/01/30 10:28:54;;;;;;;14.77;12.87;;;;;;;;;;4969189;28;20637;-47
2021/01/30 10:31:39;;;;;;;16.10;14.30;;;;;;;;;;4970587;28;20997;-48
2021/01/30 10:34:10;;;;;;;15.87;14.17;;;;;;;;;;4967178;28;21000;-49
2021/01/30 10:36:36;;;;;;;16.50;13.67;;;;;;;;;;4965133;28;20616;-48
2021/01/30 10:39:02;;;;;;;15.07;13.00;;;;;;;;;;4962510;28;20623;-48
2021/01/30 10:41:28;;;;;;;15.40;13.13;;;;;;;;;;4971322;28;20658;-48
2021/01/30 10:43:56;;;;;;;15.50;12.90;;;;;;;;;;4963214;28;20214;-48
2021/01/30 10:46:29;;;;;;;17.37;13.80;;;;;;;;;;4970016;28;20600;-48
2021/01/30 10:49:01;;;;;;;13.97;12.23;;;;;;;;;;4965560;28;20647;-48
2021/01/30 10:51:28;;;;;;;13.17;11.87;;;;;;;;;;4967486;28;21155;-48
2021/01/30 10:54:16;;;;;;;14.33;12.20;;;;;;;;;;4964338;28;20603;-48
2021/01/30 10:56:41;;;;;;;13.43;11.63;;;;;;;;;;4961426;28;20612;-48
2021/01/30 10:59:20;;;;;;;13.68;12.23;;;;;;;;;;4968376;28;20597;-50
2021/01/30 11:01:45;;;;;;;14.73;12.23;;;;;;;;;;4969176;28;20713;-48
2021/01/30 11:04:10;;;;;;;14.70;13.20;;;;;;;;;;4967114;28;20627;-48
2021/01/30 11:06:38;;;;;;;16.65;13.52;;;;;;;;;;4969012;28;20185;-48
2021/01/30 11:09:03;;;;;;;;;;;;;;;;;;4967680;28;20035;-47
2021/01/30 11:11:29;;;;;;;14.43;12.18;;;;;;;;;;4970518;28;20187;-49
2021/01/30 11:13:55;;;;;;;16.33;13.13;;;;;;;;;;4963818;28;20674;-50
2021/01/30 11:16:23;;;;;;;17.87;15.10;;;;;;;;;;4962731;28;20586;-48
2021/01/30 11:18:50;;;;;;;16.87;14.33;;;;;;;;;;4965626;28;20167;-48
2021/01/30 11:21:36;;;;;;;14.80;13.20;;;;;;;;;;4964627;28;20609;-47
2021/01/30 11:24:15;;;;;;;17.07;12.33;;;;;;;;;;4967298;28;20606;-47
2021/01/30 11:26:41;;;;;;;16.07;14.03;;;;;;;;;;4958063;28;20625;-46
2021/01/30 11:29:06;;;;;;;;;;;;;;;;;;4962318;28;20636;-46
2021/01/30 11:31:31;;;;;;;;;;;;;;;;;;4966903;28;20439;-48
2021/01/30 11:33:57;;;;;;;20.63;14.30;;;;;;;;;;4955334;28;20165;-47
2021/01/30 11:36:23;;;;;;;15.37;12.87;;;;;;;;;;4968174;28;20233;-48
2021/01/30 11:38:56;;;;;;;20.27;17.48;;;;;;;;;;4965438;28;24517;-48
2021/01/30 11:41:21;;;;;;;22.30;19.90;;;;;;;;;;4966815;28;24804;-49
2021/01/30 11:43:46;;;;;;;19.40;17.40;;;;;;;;;;4967236;28;24971;-47
2021/01/30 11:46:11;;;;;;;19.07;16.67;;;;;;;;;;4967635;28;20189;-48
2021/01/30 11:48:36;;;;;;;;;;;;;;;;;;4964619;28;20026;-47
2021/01/30 11:51:02;;;;;;;23.13;16.05;;;;;;;;;;4969995;28;20183;-48
2021/01/30 11:53:28;;;;;;;;;;;;;;;;;;4969946;28;20181;-47
2021/01/30 11:55:53;;;;;;;20.55;18.10;;;;;;;;;;4967571;28;21253;-49
2021/01/30 11:58:18;;;;;;;20.40;18.20;;;;;;;;;;4961024;28;25038;-50
2021/01/30 12:00:44;;;;;;;20.73;18.53;;;;;;;;;;4965646;28;24778;-47
2021/01/30 12:03:19;;;;;;;21.40;19.03;;;;;;;;;;4975413;28;24434;-47
2021/01/30 12:05:44;;;;;;;19.95;17.85;;;;;;;;;;4965562;28;24800;-48
2021/01/30 12:08:09;;;;;;;22.40;19.35;;;;;;;;;;4961411;28;24434;-48
2021/01/30 12:10:34;;;;;;;19.80;17.42;;;;;;;;;;4956953;28;24508;-49
2021/01/30 12:13:00;;;;;;;21.60;19.40;;;;;;;;;;4965810;28;24402;-48
2021/01/30 12:15:25;;;;;;;19.83;17.73;;;;;;;;;;4970117;28;24920;-47
2021/01/30 12:17:50;;;;;;;20.57;18.37;;;;;;;;;;4967031;28;24414;-48
2021/01/30 12:20:19;;;;;;;20.60;18.40;;;;;;;;;;4962322;28;24410;-50
2021/01/30 12:22:44;;;;;;;20.40;18.30;;;;;;;;;;4968148;28;24480;-48
2021/01/30 12:25:09;;;;;;;21.48;19.17;;;;;;;;;;4960921;28;24810;-46
2021/01/30 12:27:35;;;;;;;20.70;18.50;;;;;;;;;;4966145;28;24472;-47
2021/01/30 12:30:00;;;;;;;19.30;17.30;;;;;;;;;;4965994;28;24522;-49
2021/01/30 12:32:25;;;;;;;19.80;17.70;;;;;;;;;;4965907;28;26178;-48
2021/01/30 12:34:51;;;;;;;17.73;15.73;;;;;;;;;;4966849;28;20178;-47
2021/01/30 12:37:16;;;;;;;15.48;13.75;;;;;;;;;;4973124;28;20184;-49
2021/01/30 12:39:41;;;;;;;16.33;13.80;;;;;;;;;;4982077;28;20566;-49
2021/01/30 12:42:06;;;;;;;19.27;15.07;;;;;;;;;;4966739;28;20231;-49
2021/01/30 12:44:31;;;;;;;16.73;12.93;;;;;;;;;;4966881;28;20180;-50
2021/01/30 12:46:57;;;;;;;13.80;11.80;;;;;;;;;;4969468;28;20345;-48
2021/01/30 12:49:22;;;;;;;20.50;13.47;;;;;;;;;;4975418;28;20204;-48
2021/01/30 12:51:47;;;;;;;17.23;12.65;;;;;;;;;;4978629;28;20180;-48
2021/01/30 12:54:19;;;;;;;20.97;16.07;;;;;;;;;;4970931;28;20313;-48
2021/01/30 12:56:44;;;;;;;16.53;13.33;;;;;;;;;;4989875;28;20207;-48
2021/01/30 12:59:09;;;;;;;19.40;14.90;;;;;;;;;;4949919;28;20615;-48
2021/01/30 13:01:35;;;;;;;20.67;14.60;;;;;;;;;;4977490;28;20198;-47
2021/01/30 13:04:00;;;;;;;24.30;16.05;;;;;;;;;;4980900;28;20719;-49
2021/01/30 13:06:25;;;;;;;28.90;19.40;;;;;;;;;;4970312;28;20175;-49
2021/01/30 13:08:50;;;;;;;16.95;13.38;;;;;;;;;;4970150;28;20210;-48
2021/01/30 13:11:15;;;;;;;;;;;;;;;;;;4975572;28;20455;-47
2021/01/30 13:13:41;;;;;;;16.52;11.52;;;;;;;;;;4974891;28;20232;-47
2021/01/30 13:16:06;;;;;;;;;;;;;;;;;;4968890;28;20083;-49
2021/01/30 13:18:31;;;;;;;;;;;;;;;;;;4970530;28;19910;-48
2021/01/30 13:20:57;;;;;;;;;;;;;;;;;;4969519;28;19917;-48
2021/01/30 13:23:22;;;;;;;;;;;;;;;;;;4970841;28;20288;-48
2021/01/30 13:25:47;;;;;;;;;;;;;;;;;;4970524;28;19950;-48
2021/01/30 13:28:12;;;;;;;;;;;;;;;;;;4970424;28;19914;-47
2021/01/30 13:30:37;;;;;;;;;;;;;;;;;;4965023;28;19917;-47
2021/01/30 13:33:02;;;;;;;;;;;;;;;;;;4970525;28;19949;-46
2021/01/30 13:35:27;;;;;;;;;;;;;;;;;;4975405;28;19996;-47
2021/01/30 13:37:52;;;;;;;;;;;;;;;;;;4971855;28;19961;-47
2021/01/30 13:40:17;;;;;;;;;;;;;;;;;;4963465;28;19918;-48
2021/01/30 13:42:42;;;;;;;;;;;;;;;;;;4959817;28;20276;-47
2021/01/30 13:45:08;;;;;;;;;;;;;;;;;;4969715;28;19910;-48
2021/01/30 13:47:33;;;;;;;;;;;;;;;;;;4969192;28;19918;-49
2021/01/30 13:49:58;;;;;;;;;;;;;;;;;;4967970;28;20000;-48
2021/01/30 13:52:23;;;;;;;;;;;;;;;;;;4969672;28;19961;-47
2021/01/30 13:54:48;;;;;;;;;;;;;;;;;;4978390;28;19984;-48
2021/01/30 13:57:13;;;;;;;;;;;;;;;;;;4969462;28;19921;-48
2021/01/30 13:59:38;;;;;;;;;;;;;;;;;;4967441;28;20000;-48
2021/01/30 14:02:03;;;;;;;;;;;;;;;;;;4970333;28;20613;-49
2021/01/30 14:04:28;;;;;;;;;;;;;;;;;;4968808;28;19922;-48
2021/01/30 14:06:53;;;;;;;;;;;;;;;;;;4968539;28;20000;-49
2021/01/30 14:09:19;;;;;;;;;;;;;;;;;;4966585;28;19918;-48
2021/01/30 14:11:44;;;;;;;;;;;;;;;;;;4976590;28;19917;-48
2021/01/30 14:14:09;;;;;;;;;;;;;;;;;;4972468;28;20511;-49
2021/01/30 14:16:34;;;;;;;;;;;;;;;;;;4983283;28;20291;-50
2021/01/30 14:18:59;;;;;;;;;;;;;;;;;;4973891;28;19959;-49
2021/01/30 14:21:24;;;;;;;;;;;;;;;;;;4973316;28;19918;-50
2021/01/30 14:23:52;;;;;;;;;;;;;;;;;;4967878;28;19914;-49
2021/01/30 14:26:17;;;;;;;;;;;;;;;;;;4969332;28;19944;-48
2021/01/30 14:28:42;;;;;;;;;;;;;;;;;;4967441;28;19914;-49
2021/01/30 14:31:07;;;;;;;;;;;;;;;;;;4969550;28;19968;-48
2021/01/30 14:33:32;;;;;;;;;;;;;;;;;;4969547;28;20060;-48
2021/01/30 14:35:57;;;;;;;;;;;;;;;;;;4969174;28;19914;-48
2021/01/30 14:38:22;;;;;;;;;;;;;;;;;;4962830;28;19917;-48
2021/01/30 14:40:47;;;;;;;;;;;;;;;;;;4965071;28;19972;-48
2021/01/30 14:43:12;;;;;;;;;;;;;;;;;;4969126;28;19914;-48
2021/01/30 14:45:37;;;;;;;;;;;;;;;;;;4969530;28;20023;-48
2021/01/30 14:48:02;;;;;;;;;;;;;;;;;;4968783;28;19919;-49
2021/01/30 14:50:28;;;;;;;;;;;;;;;;;;4960479;28;19958;-48
2021/01/30 14:52:53;;;;;;;;;;;;;;;;;;4968795;28;20269;-48
2021/01/30 14:55:18;;;;;;;;;;;;;;;;;;4968967;28;19910;-49